createdAt,value
2023-01-19T00:00:00.093Z,46.31
2023-01-19T00:02:26.777Z,47.12
2023-01-19T00:04:53.463Z,47.49
2023-01-19T00:07:20.026Z,47.37
2023-01-19T00:09:46.772Z,47.30
2023-01-19T00:12:13.378Z,47.04
2023-01-19T00:14:40.147Z,46.25
2023-01-19T00:17:07.390Z,47.09
2023-01-19T00:19:34.043Z,46.08
2023-01-19T00:22:00.777Z,46.59
2023-01-19T00:24:27.403Z,45.92
2023-01-19T00:26:54.055Z,46.56
2023-01-19T00:29:20.650Z,46.21
2023-01-19T00:31:47.423Z,45.92
2023-01-19T00:34:14.083Z,46.43
2023-01-19T00:36:40.883Z,46.50
2023-01-19T00:39:07.869Z,46.68
2023-01-19T00:41:53.335Z,45.66
2023-01-19T00:44:19.957Z,46.05
2023-01-19T00:46:46.652Z,46.08
2023-01-19T00:49:13.249Z,46.59
2023-01-19T00:51:39.870Z,45.54
2023-01-19T00:54:10.383Z,45.51
2023-01-19T00:56:37.487Z,45.07
2023-01-19T00:59:05.056Z,45.72
2023-01-19T01:01:45.446Z,46.31
2023-01-19T01:04:13.617Z,46.74
2023-01-19T01:06:40.347Z,46.91
2023-01-19T01:09:12.115Z,45.08
2023-01-19T01:11:39.976Z,45.07
2023-01-19T01:14:06.978Z,45.72
2023-01-19T01:16:33.744Z,45.25
2023-01-19T01:19:00.475Z,45.98
2023-01-19T01:21:27.147Z,45.78
2023-01-19T01:23:53.872Z,45.96
2023-01-19T01:26:20.578Z,45.64
2023-01-19T01:28:47.210Z,46.17
2023-01-19T01:31:13.898Z,45.98
2023-01-19T01:33:41.927Z,46.60
2023-01-19T01:36:10.053Z,45.58
2023-01-19T01:38:36.696Z,45.63
2023-01-19T01:41:03.668Z,45.82
2023-01-19T01:43:50.121Z,46.55
2023-01-19T01:46:17.405Z,45.43
2023-01-19T01:48:51.377Z,44.90
2023-01-19T01:51:28.897Z,45.07
2023-01-19T01:54:00.541Z,46.27
2023-01-19T01:56:34.488Z,45.30
2023-01-19T01:59:02.426Z,45.80
2023-01-19T02:01:47.710Z,46.14
2023-01-19T02:04:14.469Z,46.61
2023-01-19T02:06:59.631Z,46.67
2023-01-19T02:09:44.743Z,46.76
2023-01-19T02:12:30.572Z,45.84
2023-01-19T02:14:57.252Z,46.48
2023-01-19T02:17:23.978Z,45.68
2023-01-19T02:19:51.008Z,46.30
2023-01-19T02:22:23.439Z,45.47
2023-01-19T02:24:50.145Z,45.95
2023-01-19T02:27:16.827Z,46.69
2023-01-19T02:29:43.449Z,46.31
2023-01-19T02:32:10.282Z,46.37
2023-01-19T02:34:37.013Z,45.75
2023-01-19T02:37:21.770Z,46.13
2023-01-19T02:39:59.091Z,46.53
2023-01-19T02:42:30.919Z,46.85
2023-01-19T02:44:57.741Z,47.13
2023-01-19T02:47:24.375Z,46.86
2023-01-19T02:49:56.104Z,47.69
2023-01-19T02:52:22.837Z,46.04
2023-01-19T02:54:58.435Z,44.79
2023-01-19T02:57:49.189Z,45.48
2023-01-19T03:00:37.441Z,43.75
2023-01-19T03:03:07.065Z,43.68
2023-01-19T03:05:49.970Z,43.80
2023-01-19T03:08:39.563Z,43.30
2023-01-19T03:11:12.804Z,43.57
2023-01-19T03:14:00.948Z,44.69
2023-01-19T03:16:31.479Z,42.28
2023-01-19T03:19:16.223Z,42.49
2023-01-19T03:21:44.329Z,43.34
2023-01-19T03:24:11.406Z,43.93
2023-01-19T03:26:41.598Z,42.42
2023-01-19T03:29:08.238Z,43.67
2023-01-19T03:31:34.874Z,42.51
2023-01-19T03:34:03.813Z,43.38
2023-01-19T03:36:34.002Z,43.91
2023-01-19T03:39:00.956Z,44.02
2023-01-19T03:41:28.490Z,43.82
2023-01-19T03:43:55.648Z,44.78
2023-01-19T03:46:22.940Z,45.04
2023-01-19T03:48:49.935Z,45.20
2023-01-19T03:51:16.586Z,45.01
2023-01-19T03:53:43.289Z,43.88
2023-01-19T03:56:27.873Z,42.87
2023-01-19T03:58:56.220Z,42.02
2023-01-19T04:01:23.874Z,42.11
2023-01-19T04:03:51.306Z,43.07
2023-01-19T04:06:18.124Z,43.39
2023-01-19T04:08:44.850Z,43.88
2023-01-19T04:11:12.329Z,43.77
2023-01-19T04:13:39.027Z,43.17
2023-01-19T04:16:06.243Z,42.25
2023-01-19T04:18:34.725Z,42.22
2023-01-19T04:21:06.195Z,44.40
2023-01-19T04:23:33.588Z,45.31
2023-01-19T04:26:01.201Z,45.46
2023-01-19T04:28:27.905Z,44.70
2023-01-19T04:30:54.695Z,45.52
2023-01-19T04:33:21.517Z,42.42
2023-01-19T04:35:48.712Z,44.24
2023-01-19T04:38:15.313Z,45.10
2023-01-19T04:40:41.980Z,45.71
2023-01-19T04:43:08.879Z,44.98
2023-01-19T04:45:36.588Z,43.13
2023-01-19T04:48:06.672Z,43.52
2023-01-19T04:50:33.389Z,43.88
2023-01-19T04:53:00.979Z,44.72
2023-01-19T04:55:27.964Z,43.39
2023-01-19T04:57:54.842Z,44.16
2023-01-19T05:00:21.748Z,44.53
2023-01-19T05:02:48.591Z,45.46
2023-01-19T05:05:15.369Z,45.54
2023-01-19T05:07:42.778Z,44.15
2023-01-19T05:10:10.227Z,44.40
2023-01-19T05:12:37.329Z,44.67
2023-01-19T05:15:04.449Z,45.17
2023-01-19T05:17:31.047Z,44.68
2023-01-19T05:19:57.708Z,45.76
2023-01-19T05:22:24.544Z,45.68
2023-01-19T05:24:51.132Z,45.43
2023-01-19T05:27:17.854Z,46.87
2023-01-19T05:29:44.441Z,46.10
2023-01-19T05:32:11.177Z,44.63
2023-01-19T05:34:37.815Z,46.51
2023-01-19T05:37:04.439Z,47.44
2023-01-19T05:39:31.191Z,47.31
2023-01-19T05:41:57.772Z,46.63
2023-01-19T05:44:24.559Z,46.86
2023-01-19T05:46:51.320Z,46.99
2023-01-19T05:49:18.020Z,46.80
2023-01-19T05:51:45.544Z,46.86
2023-01-19T05:54:14.202Z,46.53
2023-01-19T05:56:40.912Z,47.59
2023-01-19T05:59:07.607Z,49.41
2023-01-19T06:01:37.037Z,48.32
2023-01-19T06:04:05.749Z,48.33
2023-01-19T06:06:32.453Z,50.47
2023-01-19T06:08:59.292Z,49.20
2023-01-19T06:11:26.263Z,48.18
2023-01-19T06:13:52.887Z,48.21
2023-01-19T06:16:19.632Z,46.96
2023-01-19T06:18:46.319Z,47.32
2023-01-19T06:21:14.371Z,47.62
2023-01-19T06:23:41.126Z,47.28
2023-01-19T06:26:07.804Z,46.66
2023-01-19T06:28:34.558Z,45.36
2023-01-19T06:31:01.329Z,46.27
2023-01-19T06:33:28.097Z,46.23
2023-01-19T06:35:54.877Z,46.64
2023-01-19T06:38:21.743Z,45.71
2023-01-19T06:40:55.860Z,44.84
2023-01-19T06:43:22.583Z,44.19
2023-01-19T06:45:50.211Z,45.10
2023-01-19T06:48:17.006Z,43.58
2023-01-19T06:50:46.959Z,44.46
2023-01-19T06:53:14.636Z,45.47
2023-01-19T06:55:41.221Z,44.77
2023-01-19T06:58:08.533Z,44.01
2023-01-19T07:00:35.328Z,44.37
2023-01-19T07:03:02.611Z,42.22
2023-01-19T07:05:29.482Z,42.54
2023-01-19T07:07:56.652Z,43.46
2023-01-19T07:10:24.331Z,43.18
2023-01-19T07:12:51.033Z,43.28
2023-01-19T07:15:19.780Z,41.02
2023-01-19T07:17:46.456Z,41.02
2023-01-19T07:20:14.279Z,41.83
2023-01-19T07:22:41.895Z,41.39
2023-01-19T07:25:08.949Z,40.82
2023-01-19T07:27:35.661Z,40.47
2023-01-19T07:30:02.513Z,40.75
2023-01-19T07:32:29.189Z,40.95
2023-01-19T07:34:55.849Z,40.50
2023-01-19T07:37:22.550Z,38.10
2023-01-19T07:39:49.223Z,39.43
2023-01-19T07:42:15.939Z,40.28
2023-01-19T07:44:42.702Z,39.70
2023-01-19T07:47:12.561Z,38.77
2023-01-19T07:49:39.725Z,38.99
2023-01-19T07:52:06.385Z,38.16
2023-01-19T07:54:33.237Z,39.54
2023-01-19T07:57:00.880Z,39.17
2023-01-19T07:59:31.140Z,39.51
2023-01-19T08:01:59.558Z,38.61
2023-01-19T08:04:27.370Z,38.84
2023-01-19T08:06:54.216Z,37.79
2023-01-19T08:09:20.892Z,34.68
2023-01-19T08:11:47.521Z,36.96
2023-01-19T08:14:14.160Z,37.29
2023-01-19T08:16:40.828Z,36.70
2023-01-19T08:19:07.443Z,36.55
2023-01-19T08:21:35.596Z,37.91
2023-01-19T08:24:02.533Z,37.25
2023-01-19T08:26:30.679Z,35.62
2023-01-19T08:28:58.368Z,37.14
2023-01-19T08:31:25.315Z,35.56
2023-01-19T08:33:52.331Z,38.77
2023-01-19T08:36:19.518Z,37.35
2023-01-19T08:38:46.406Z,36.97
2023-01-19T08:41:13.266Z,37.26
2023-01-19T08:43:39.864Z,37.18
2023-01-19T08:46:06.794Z,38.01
2023-01-19T08:48:33.626Z,35.66
2023-01-19T08:51:00.549Z,35.62
2023-01-19T08:53:27.270Z,35.37
2023-01-19T08:56:01.331Z,35.58
2023-01-19T08:58:28.355Z,34.80
2023-01-19T09:00:55.226Z,37.41
2023-01-19T09:03:22.873Z,36.42
2023-01-19T09:05:49.691Z,33.94
2023-01-19T09:08:16.624Z,34.65
2023-01-19T09:10:48.077Z,36.78
2023-01-19T09:13:14.882Z,35.34
2023-01-19T09:15:41.770Z,35.76
2023-01-19T09:18:10.388Z,35.52
2023-01-19T09:20:39.082Z,35.98
2023-01-19T09:23:06.270Z,37.32
2023-01-19T09:25:32.960Z,36.44
2023-01-19T09:28:00.524Z,36.85
2023-01-19T09:30:27.943Z,36.63
2023-01-19T09:32:54.682Z,33.00
2023-01-19T09:35:21.698Z,35.26
2023-01-19T09:37:48.383Z,34.74
2023-01-19T09:40:15.463Z,35.34
2023-01-19T09:42:46.440Z,35.82
2023-01-19T09:45:23.361Z,35.37
2023-01-19T09:47:49.939Z,34.88
2023-01-19T09:50:28.175Z,36.51
2023-01-19T09:53:07.523Z,37.93
2023-01-19T09:55:34.226Z,36.74
2023-01-19T09:58:01.237Z,37.71
2023-01-19T10:00:28.067Z,38.58
2023-01-19T10:02:57.685Z,38.08
2023-01-19T10:05:34.062Z,37.98
2023-01-19T10:08:28.720Z,40.76
2023-01-19T10:10:56.839Z,40.35
2023-01-19T10:13:36.552Z,41.85
2023-01-19T10:16:15.006Z,42.46
2023-01-19T10:18:45.972Z,43.34
2023-01-19T10:21:27.251Z,42.89
2023-01-19T10:24:18.079Z,42.80
2023-01-19T10:26:49.815Z,43.79
2023-01-19T10:29:26.761Z,43.73
2023-01-19T10:31:55.472Z,44.68
2023-01-19T10:34:23.942Z,44.99
2023-01-19T10:36:50.909Z,45.99
2023-01-19T10:39:18.392Z,44.38
2023-01-19T10:41:49.287Z,43.20
2023-01-19T10:44:26.512Z,44.67
2023-01-19T10:46:54.489Z,44.68
2023-01-19T10:49:28.181Z,44.19
2023-01-19T10:51:55.820Z,44.21
2023-01-19T10:54:22.592Z,42.98
2023-01-19T10:56:57.363Z,41.81
2023-01-19T10:59:31.153Z,43.69
2023-01-19T11:02:21.188Z,43.64
2023-01-19T11:04:50.125Z,44.03
2023-01-19T11:07:27.956Z,47.02
2023-01-19T11:10:11.818Z,47.54
2023-01-19T11:13:02.100Z,46.75
2023-01-19T11:15:33.188Z,45.50
2023-01-19T11:18:00.096Z,44.42
2023-01-19T11:20:34.316Z,44.43
2023-01-19T11:23:08.367Z,47.28
2023-01-19T11:25:35.479Z,48.22
2023-01-19T11:28:02.180Z,47.41
2023-01-19T11:30:34.999Z,48.15
2023-01-19T11:33:01.938Z,48.92
2023-01-19T11:35:35.974Z,47.68
2023-01-19T11:38:20.329Z,45.34
2023-01-19T11:40:52.797Z,46.43
2023-01-19T11:43:20.823Z,46.80
2023-01-19T11:45:47.696Z,45.38
2023-01-19T11:48:27.288Z,45.15
2023-01-19T11:50:53.944Z,44.64
2023-01-19T11:53:29.290Z,46.58
2023-01-19T11:55:57.657Z,46.24
2023-01-19T11:58:24.499Z,42.05
2023-01-19T12:01:11.588Z,41.04
2023-01-19T12:03:46.997Z,44.38
2023-01-19T12:06:16.072Z,43.99
2023-01-19T12:09:04.224Z,43.73
2023-01-19T12:11:55.366Z,42.91
2023-01-19T12:14:27.471Z,41.38
2023-01-19T12:16:56.207Z,41.35
2023-01-19T12:19:25.331Z,40.86
2023-01-19T12:21:52.717Z,43.51
2023-01-19T12:24:31.941Z,43.36
2023-01-19T12:26:59.899Z,41.61
2023-01-19T12:29:28.815Z,42.09
2023-01-19T12:32:13.936Z,40.20
2023-01-19T12:34:45.078Z,39.89
2023-01-19T12:37:36.311Z,40.48
2023-01-19T12:40:05.631Z,40.06
2023-01-19T12:42:32.302Z,37.12
2023-01-19T12:45:09.359Z,41.10
2023-01-19T12:47:36.486Z,41.02
2023-01-19T12:50:08.003Z,40.44
2023-01-19T12:52:39.175Z,41.15
2023-01-19T12:55:15.136Z,41.49
2023-01-19T12:57:41.729Z,40.33
2023-01-19T13:00:26.598Z,39.53
2023-01-19T13:02:57.401Z,39.62
2023-01-19T13:05:33.569Z,40.36
2023-01-19T13:08:03.138Z,41.11
2023-01-19T13:11:05.610Z,40.51
2023-01-19T13:13:39.916Z,40.56
2023-01-19T13:16:18.796Z,39.11
2023-01-19T13:18:49.079Z,39.74
2023-01-19T13:21:29.597Z,41.90
2023-01-19T13:24:06.357Z,43.12
2023-01-19T13:26:38.568Z,41.71
2023-01-19T13:29:13.234Z,41.24
2023-01-19T13:31:40.910Z,43.76
2023-01-19T13:34:15.123Z,45.05
2023-01-19T13:36:46.213Z,43.39
2023-01-19T13:39:17.680Z,46.62
2023-01-19T13:41:45.086Z,49.19
2023-01-19T13:44:21.843Z,49.84
2023-01-19T13:46:48.703Z,50.69
2023-01-19T13:49:23.405Z,49.25
2023-01-19T13:52:25.270Z,48.92
2023-01-19T13:55:01.729Z,49.73
2023-01-19T13:57:29.265Z,50.70
2023-01-19T14:00:17.342Z,49.55
2023-01-19T14:02:54.736Z,50.41
2023-01-19T14:05:30.102Z,49.82
2023-01-19T14:08:08.951Z,48.62
2023-01-19T14:10:36.247Z,49.74
2023-01-19T14:13:12.886Z,51.91
2023-01-19T14:15:40.784Z,51.56
2023-01-19T14:18:30.059Z,52.77
2023-01-19T14:21:08.908Z,53.60
2023-01-19T14:23:39.541Z,53.20
2023-01-19T14:26:42.370Z,53.43
2023-01-19T14:29:18.058Z,52.75
2023-01-19T14:31:44.672Z,52.71
2023-01-19T14:34:35.388Z,51.31
2023-01-19T14:37:03.281Z,49.88
2023-01-19T14:39:34.634Z,48.48
2023-01-19T14:42:03.185Z,48.39
2023-01-19T14:44:32.388Z,48.97
2023-01-19T14:46:59.639Z,48.29
2023-01-19T14:49:39.702Z,49.28
2023-01-19T14:52:19.231Z,48.78
2023-01-19T14:54:45.935Z,48.15
2023-01-19T14:57:15.820Z,50.02
2023-01-19T14:59:46.918Z,50.82
2023-01-19T15:02:13.737Z,51.13
2023-01-19T15:04:40.469Z,50.21
2023-01-19T15:07:07.270Z,50.47
2023-01-19T15:09:33.906Z,50.57
2023-01-19T15:12:00.666Z,51.52
2023-01-19T15:14:27.901Z,50.35
2023-01-19T15:16:54.581Z,51.32
2023-01-19T15:19:21.182Z,51.58
2023-01-19T15:21:47.858Z,50.50
2023-01-19T15:24:16.343Z,52.13
2023-01-19T15:26:44.402Z,51.66
2023-01-19T15:29:32.334Z,51.16
2023-01-19T15:31:59.055Z,50.67
2023-01-19T15:34:25.739Z,51.20
2023-01-19T15:36:52.350Z,51.22
2023-01-19T15:39:19.061Z,51.11
2023-01-19T15:41:45.696Z,51.67
2023-01-19T15:44:12.569Z,51.62
2023-01-19T15:46:39.299Z,52.15
2023-01-19T15:49:05.965Z,51.97
2023-01-19T15:51:33.072Z,52.16
2023-01-19T15:53:59.756Z,53.10
2023-01-19T15:56:30.588Z,53.44
2023-01-19T15:58:58.131Z,53.16
2023-01-19T16:01:31.471Z,54.43
2023-01-19T16:04:05.236Z,55.87
2023-01-19T16:06:32.156Z,56.34
2023-01-19T16:09:01.851Z,55.60
2023-01-19T16:11:29.873Z,55.41
2023-01-19T16:13:56.561Z,55.59
2023-01-19T16:16:24.182Z,55.23
2023-01-19T16:18:50.999Z,54.48
2023-01-19T16:21:17.644Z,54.80
2023-01-19T16:23:44.379Z,54.48
2023-01-19T16:26:32.539Z,54.17
2023-01-19T16:29:00.687Z,54.36
2023-01-19T16:31:27.487Z,54.41
2023-01-19T16:33:54.269Z,54.73
2023-01-19T16:36:26.518Z,54.54
2023-01-19T16:38:53.635Z,54.63
2023-01-19T16:41:20.522Z,54.77
2023-01-19T16:43:52.013Z,55.23
2023-01-19T16:46:23.511Z,56.16
2023-01-19T16:48:50.919Z,55.62
2023-01-19T16:51:17.660Z,55.82
2023-01-19T16:53:44.481Z,56.32
2023-01-19T16:56:12.747Z,55.65
2023-01-19T16:58:39.723Z,55.69
2023-01-19T17:01:10.884Z,55.14
2023-01-19T17:03:38.603Z,54.85
2023-01-19T17:06:09.047Z,54.95
2023-01-19T17:08:35.733Z,54.13
2023-01-19T17:11:09.399Z,53.99
2023-01-19T17:13:35.995Z,54.53
2023-01-19T17:16:02.930Z,54.17
2023-01-19T17:18:31.920Z,54.06
2023-01-19T17:21:06.341Z,56.46
2023-01-19T17:23:32.943Z,57.71
2023-01-19T17:25:59.633Z,59.38
2023-01-19T17:28:26.522Z,61.15
2023-01-19T17:30:53.465Z,61.17
2023-01-19T17:33:21.179Z,61.26
2023-01-19T17:35:47.925Z,63.94
2023-01-19T17:38:14.588Z,63.01
2023-01-19T17:40:41.204Z,62.71
2023-01-19T17:43:07.907Z,62.92
2023-01-19T17:45:36.104Z,62.67
2023-01-19T17:48:06.055Z,61.70
2023-01-19T17:50:34.565Z,61.29
2023-01-19T17:53:01.257Z,61.55
2023-01-19T17:55:27.978Z,61.99
2023-01-19T17:57:55.475Z,63.68
2023-01-19T18:00:22.580Z,65.40
2023-01-19T18:02:50.832Z,66.11
2023-01-19T18:05:18.291Z,67.31
2023-01-19T18:07:44.970Z,67.21
2023-01-19T18:10:11.906Z,68.36
2023-01-19T18:12:38.902Z,68.77
2023-01-19T18:15:06.224Z,70.64
2023-01-19T18:17:32.855Z,71.20
2023-01-19T18:19:59.595Z,72.22
2023-01-19T18:22:26.242Z,71.64
2023-01-19T18:24:52.844Z,68.52
2023-01-19T18:27:20.375Z,68.57
2023-01-19T18:29:47.074Z,67.54
2023-01-19T18:32:13.678Z,69.89
2023-01-19T18:34:40.393Z,69.67
2023-01-19T18:37:07.077Z,70.07
2023-01-19T18:39:33.806Z,71.66
2023-01-19T18:42:00.727Z,70.41
2023-01-19T18:44:27.605Z,71.94
2023-01-19T18:46:54.828Z,73.78
2023-01-19T18:49:21.453Z,73.97
2023-01-19T18:51:48.189Z,74.00
2023-01-19T18:54:14.926Z,73.23
2023-01-19T18:56:41.679Z,73.66
2023-01-19T18:59:08.383Z,74.79
2023-01-19T19:01:36.121Z,75.49
2023-01-19T19:04:03.084Z,76.46
2023-01-19T19:06:29.797Z,78.06
2023-01-19T19:08:57.302Z,77.87
2023-01-19T19:11:24.353Z,77.82
2023-01-19T19:13:55.196Z,78.53
2023-01-19T19:16:22.112Z,78.19
2023-01-19T19:18:52.126Z,79.00
2023-01-19T19:21:19.303Z,79.76
2023-01-19T19:23:53.346Z,79.47
2023-01-19T19:26:19.996Z,79.81
2023-01-19T19:28:47.374Z,79.12
2023-01-19T19:31:16.634Z,78.84
2023-01-19T19:33:43.339Z,80.22
2023-01-19T19:36:10.366Z,80.23
2023-01-19T19:38:37.178Z,80.74
2023-01-19T19:41:07.801Z,79.99
2023-01-19T19:43:34.710Z,80.76
2023-01-19T19:46:08.857Z,81.28
2023-01-19T19:48:37.066Z,79.28
2023-01-19T19:51:25.722Z,80.08
2023-01-19T19:53:53.208Z,80.84
2023-01-19T19:56:21.367Z,79.79
2023-01-19T19:58:48.511Z,80.11
2023-01-19T20:01:19.845Z,81.01
2023-01-19T20:03:46.598Z,81.85
2023-01-19T20:06:20.593Z,82.17
2023-01-19T20:08:51.554Z,82.88
2023-01-19T20:11:22.685Z,80.86
2023-01-19T20:13:49.357Z,79.73
2023-01-19T20:16:17.875Z,79.86
2023-01-19T20:18:48.421Z,80.27
2023-01-19T20:21:35.693Z,79.31
2023-01-19T20:24:04.302Z,79.17
2023-01-19T20:26:33.074Z,79.30
2023-01-19T20:29:02.470Z,78.63
2023-01-19T20:31:30.609Z,79.94
2023-01-19T20:33:58.892Z,80.92
2023-01-19T20:36:25.986Z,79.21
2023-01-19T20:38:53.281Z,80.16
2023-01-19T20:41:20.324Z,78.97
2023-01-19T20:43:47.052Z,78.88
2023-01-19T20:46:13.772Z,80.92
2023-01-19T20:48:40.390Z,83.80
2023-01-19T20:51:12.116Z,81.80
2023-01-19T20:53:39.484Z,81.43
2023-01-19T20:56:11.196Z,80.96
2023-01-19T20:58:37.864Z,80.05
2023-01-19T21:01:15.354Z,79.90
2023-01-19T21:03:42.282Z,81.80
2023-01-19T21:06:09.125Z,81.70
2023-01-19T21:08:35.918Z,81.61
2023-01-19T21:11:02.650Z,81.18
2023-01-19T21:13:29.210Z,82.10
2023-01-19T21:15:55.873Z,82.76
2023-01-19T21:18:22.567Z,82.59
2023-01-19T21:20:49.368Z,83.62
2023-01-19T21:23:16.071Z,82.34
2023-01-19T21:25:50.897Z,83.88
2023-01-19T21:28:18.611Z,85.52
2023-01-19T21:30:45.382Z,87.20
2023-01-19T21:33:12.210Z,88.68
2023-01-19T21:35:38.925Z,88.00
2023-01-19T21:38:05.807Z,88.60
2023-01-19T21:40:32.527Z,91.46
2023-01-19T21:42:59.282Z,90.35
2023-01-19T21:45:25.909Z,87.03
2023-01-19T21:47:52.651Z,84.94
2023-01-19T21:50:19.524Z,83.18
2023-01-19T21:52:46.274Z,84.35
2023-01-19T21:55:13.089Z,84.62
2023-01-19T21:57:39.752Z,84.09
2023-01-19T22:00:07.181Z,83.21
2023-01-19T22:02:38.866Z,84.44
2023-01-19T22:05:06.666Z,84.85
2023-01-19T22:07:33.382Z,84.89
2023-01-19T22:10:00.086Z,85.68
2023-01-19T22:12:26.847Z,83.90
2023-01-19T22:14:53.533Z,84.25
2023-01-19T22:17:20.120Z,85.29
2023-01-19T22:19:47.571Z,85.44
2023-01-19T22:22:15.059Z,84.35
2023-01-19T22:24:46.477Z,83.06
2023-01-19T22:27:13.504Z,84.20
2023-01-19T22:29:40.108Z,84.31
2023-01-19T22:32:07.018Z,84.04
2023-01-19T22:34:33.864Z,84.74
2023-01-19T22:37:00.896Z,84.41
2023-01-19T22:39:27.461Z,86.00
2023-01-19T22:41:54.129Z,85.99
2023-01-19T22:44:21.317Z,85.11
2023-01-19T22:46:48.709Z,85.38
2023-01-19T22:49:16.702Z,87.08
2023-01-19T22:51:43.896Z,87.22
2023-01-19T22:54:10.860Z,87.95
2023-01-19T22:56:38.152Z,88.78
2023-01-19T22:59:05.239Z,88.24
2023-01-19T23:01:42.301Z,86.89
2023-01-19T23:04:12.313Z,85.97
2023-01-19T23:06:39.097Z,86.77
2023-01-19T23:09:07.502Z,88.01
2023-01-19T23:11:36.202Z,87.51
2023-01-19T23:14:03.749Z,86.59
2023-01-19T23:16:30.421Z,86.41
2023-01-19T23:18:57.828Z,87.64
2023-01-19T23:21:25.703Z,87.02
2023-01-19T23:23:56.602Z,86.47
2023-01-19T23:26:23.608Z,86.88
2023-01-19T23:29:01.166Z,86.82
2023-01-19T23:31:32.181Z,87.92
2023-01-19T23:34:03.467Z,88.84
2023-01-19T23:36:31.481Z,90.22
2023-01-19T23:38:59.927Z,90.97
2023-01-19T23:41:27.917Z,90.66
2023-01-19T23:43:54.682Z,91.35
2023-01-19T23:46:21.428Z,91.80
2023-01-19T23:48:48.076Z,90.84
2023-01-19T23:51:25.585Z,90.72
2023-01-19T23:53:52.227Z,92.34
2023-01-19T23:56:25.685Z,91.33
2023-01-19T23:58:59.534Z,90.70
